sensor_id;sensor_type;location;lat;lon;timestamp;pressure;altitude;pressure_sealevel;temperature;humidity
14089;BME280;7120;52.890;6.040;2023-02-18T00:00:52;102015.72;;;9.12;84.56
14089;BME280;7120;52.890;6.040;2023-02-18T00:03:18;102036.06;;;9.36;84.75
14089;BME280;7120;52.890;6.040;2023-02-18T00:05:43;102036.22;;;9.15;84.94
14089;BME280;7120;52.890;6.040;2023-02-18T00:08:08;102021.97;;;9.07;85.40
14089;BME280;7120;52.890;6.040;2023-02-18T00:10:34;102007.81;;;9.11;85.00
14089;BME280;7120;52.890;6.040;2023-02-18T00:12:59;102013.78;;;9.02;86.04
14089;BME280;7120;52.890;6.040;2023-02-18T00:15:25;102023.66;;;9.14;86.07
14089;BME280;7120;52.890;6.040;2023-02-18T00:17:51;102014.94;;;9.17;85.90
14089;BME280;7120;52.890;6.040;2023-02-18T00:20:16;102010.91;;;9.24;85.69
14089;BME280;7120;52.890;6.040;2023-02-18T00:22:41;102010.31;;;9.22;86.22
14089;BME280;7120;52.890;6.040;2023-02-18T00:25:07;102011.25;;;9.38;86.20
14089;BME280;7120;52.890;6.040;2023-02-18T00:27:32;101994.56;;;9.34;85.83
14089;BME280;7120;52.890;6.040;2023-02-18T00:29:58;101996.41;;;9.19;86.21
14089;BME280;7120;52.890;6.040;2023-02-18T00:32:23;101980.28;;;9.17;87.29
14089;BME280;7120;52.890;6.040;2023-02-18T00:34:48;101971.28;;;9.22;86.32
14089;BME280;7120;52.890;6.040;2023-02-18T00:37:14;101986.56;;;9.23;87.11
14089;BME280;7120;52.890;6.040;2023-02-18T00:39:39;101983.34;;;9.26;87.66
14089;BME280;7120;52.890;6.040;2023-02-18T00:42:04;101965.59;;;9.23;87.49
14089;BME280;7120;52.890;6.040;2023-02-18T00:44:30;101988.56;;;9.32;87.64
14089;BME280;7120;52.890;6.040;2023-02-18T00:46:55;101978.50;;;9.38;87.63
14089;BME280;7120;52.890;6.040;2023-02-18T00:49:20;101969.25;;;9.49;87.38
14089;BME280;7120;52.890;6.040;2023-02-18T00:51:46;101951.69;;;9.35;88.12
14089;BME280;7120;52.890;6.040;2023-02-18T00:54:11;101940.47;;;9.26;88.31
14089;BME280;7120;52.890;6.040;2023-02-18T00:56:36;101945.44;;;9.34;89.01
14089;BME280;7120;52.890;6.040;2023-02-18T00:59:02;101937.53;;;9.38;88.32
14089;BME280;7120;52.890;6.040;2023-02-18T01:01:28;101925.53;;;9.49;88.53
14089;BME280;7120;52.890;6.040;2023-02-18T01:03:54;101920.63;;;9.46;88.72
14089;BME280;7120;52.890;6.040;2023-02-18T01:06:19;101918.91;;;9.25;89.40
14089;BME280;7120;52.890;6.040;2023-02-18T01:08:46;101918.91;;;9.25;89.85
14089;BME280;7120;52.890;6.040;2023-02-18T01:11:12;101905.53;;;9.28;89.59
14089;BME280;7120;52.890;6.040;2023-02-18T01:13:39;101903.69;;;9.39;89.47
14089;BME280;7120;52.890;6.040;2023-02-18T01:16:04;101907.22;;;9.34;89.12
14089;BME280;7120;52.890;6.040;2023-02-18T01:18:30;101915.88;;;9.16;89.15
14089;BME280;7120;52.890;6.040;2023-02-18T01:20:55;101914.75;;;9.12;90.07
14089;BME280;7120;52.890;6.040;2023-02-18T01:23:21;101915.38;;;9.29;89.70
14089;BME280;7120;52.890;6.040;2023-02-18T01:25:47;101911.81;;;9.24;89.40
14089;BME280;7120;52.890;6.040;2023-02-18T01:28:13;101913.22;;;9.31;89.17
14089;BME280;7120;52.890;6.040;2023-02-18T01:30:39;101909.63;;;9.26;89.20
14089;BME280;7120;52.890;6.040;2023-02-18T01:33:05;101917.84;;;9.36;88.72
14089;BME280;7120;52.890;6.040;2023-02-18T01:35:31;101913.00;;;9.53;87.84
14089;BME280;7120;52.890;6.040;2023-02-18T01:37:56;101900.94;;;9.44;87.60
14089;BME280;7120;52.890;6.040;2023-02-18T01:40:26;101898.25;;;9.49;87.83
14089;BME280;7120;52.890;6.040;2023-02-18T01:42:52;101892.28;;;9.62;87.91
14089;BME280;7120;52.890;6.040;2023-02-18T01:48:20;101895.00;;;9.62;87.31
14089;BME280;7120;52.890;6.040;2023-02-18T01:50:51;101895.53;;;9.54;87.30
14089;BME280;7120;52.890;6.040;2023-02-18T01:53:22;101875.06;;;9.62;87.03
14089;BME280;7120;52.890;6.040;2023-02-18T01:55:48;101871.00;;;9.90;86.13
14089;BME280;7120;52.890;6.040;2023-02-18T01:58:14;101865.25;;;9.76;86.57
14089;BME280;7120;52.890;6.040;2023-02-18T02:00:40;101861.16;;;9.84;86.08
14089;BME280;7120;52.890;6.040;2023-02-18T02:03:06;101856.25;;;9.91;85.83
14089;BME280;7120;52.890;6.040;2023-02-18T02:05:32;101860.34;;;9.99;85.06
14089;BME280;7120;52.890;6.040;2023-02-18T02:07:58;101840.69;;;9.91;85.37
14089;BME280;7120;52.890;6.040;2023-02-18T02:10:33;101825.38;;;9.96;85.16
14089;BME280;7120;52.890;6.040;2023-02-18T02:15:53;101845.88;;;9.98;85.39
14089;BME280;7120;52.890;6.040;2023-02-18T02:29:34;101784.13;;;9.77;86.30
14089;BME280;7120;52.890;6.040;2023-02-18T02:32:15;101784.94;;;9.77;86.16
14089;BME280;7120;52.890;6.040;2023-02-18T02:34:52;101779.19;;;9.79;85.92
14089;BME280;7120;52.890;6.040;2023-02-18T02:37:46;101768.81;;;9.50;86.48
14089;BME280;7120;52.890;6.040;2023-02-18T02:43:05;101787.09;;;9.34;89.11
14089;BME280;7120;52.890;6.040;2023-02-18T02:48:36;101771.81;;;9.49;90.42
14089;BME280;7120;52.890;6.040;2023-02-18T02:51:11;101756.25;;;9.34;92.58
14089;BME280;7120;52.890;6.040;2023-02-18T02:53:40;101769.91;;;9.34;93.46
14089;BME280;7120;52.890;6.040;2023-02-18T02:56:08;101763.09;;;9.47;93.82
14089;BME280;7120;52.890;6.040;2023-02-18T02:58:34;101753.00;;;9.52;94.06
14089;BME280;7120;52.890;6.040;2023-02-18T03:01:28;101748.91;;;9.45;94.47
14089;BME280;7120;52.890;6.040;2023-02-18T03:12:25;101725.66;;;9.57;97.42
14089;BME280;7120;52.890;6.040;2023-02-18T03:15:25;101722.66;;;9.64;97.30
14089;BME280;7120;52.890;6.040;2023-02-18T03:18:07;101722.13;;;9.52;97.95
14089;BME280;7120;52.890;6.040;2023-02-18T03:20:52;101713.09;;;9.72;97.73
14089;BME280;7120;52.890;6.040;2023-02-18T03:23:24;101697.84;;;9.66;98.05
14089;BME280;7120;52.890;6.040;2023-02-18T03:25:51;101680.06;;;9.68;97.71
14089;BME280;7120;52.890;6.040;2023-02-18T03:28:19;101679.25;;;9.68;98.04
14089;BME280;7120;52.890;6.040;2023-02-18T03:30:50;101659.00;;;9.79;97.42
14089;BME280;7120;52.890;6.040;2023-02-18T03:33:20;101668.03;;;9.74;97.45
14089;BME280;7120;52.890;6.040;2023-02-18T03:35:48;101655.72;;;9.77;97.51
14089;BME280;7120;52.890;6.040;2023-02-18T03:38:24;101669.38;;;9.82;97.76
14089;BME280;7120;52.890;6.040;2023-02-18T03:40:50;101654.91;;;9.76;98.30
14089;BME280;7120;52.890;6.040;2023-02-18T03:43:16;101651.94;;;9.68;97.78
14089;BME280;7120;52.890;6.040;2023-02-18T03:45:42;101654.66;;;9.62;99.20
14089;BME280;7120;52.890;6.040;2023-02-18T03:48:07;101677.53;;;9.97;97.95
14089;BME280;7120;52.890;6.040;2023-02-18T03:50:33;101663.31;;;10.00;97.29
14089;BME280;7120;52.890;6.040;2023-02-18T03:52:58;101663.63;;;9.88;98.04
14089;BME280;7120;52.890;6.040;2023-02-18T03:55:24;101663.31;;;10.00;97.78
14089;BME280;7120;52.890;6.040;2023-02-18T03:57:49;101661.38;;;10.11;97.43
14089;BME280;7120;52.890;6.040;2023-02-18T04:00:14;101642.31;;;9.96;97.75
14089;BME280;7120;52.890;6.040;2023-02-18T04:02:41;101648.75;;;10.20;97.71
14089;BME280;7120;52.890;6.040;2023-02-18T04:05:06;101644.13;;;10.21;97.82
14089;BME280;7120;52.890;6.040;2023-02-18T04:07:33;101637.59;;;10.16;97.23
14089;BME280;7120;52.890;6.040;2023-02-18T04:09:58;101620.16;;;9.97;98.57
14089;BME280;7120;52.890;6.040;2023-02-18T04:12:24;101611.06;;;10.17;98.53
14089;BME280;7120;52.890;6.040;2023-02-18T04:14:49;101609.19;;;10.07;98.54
14089;BME280;7120;52.890;6.040;2023-02-18T04:17:14;101600.94;;;10.17;98.08
14089;BME280;7120;52.890;6.040;2023-02-18T04:19:40;101610.25;;;10.16;98.95
14089;BME280;7120;52.890;6.040;2023-02-18T04:22:05;101604.28;;;10.09;99.77
14089;BME280;7120;52.890;6.040;2023-02-18T04:24:30;101592.19;;;10.26;98.85
14089;BME280;7120;52.890;6.040;2023-02-18T04:26:57;101575.56;;;10.12;99.26
14089;BME280;7120;52.890;6.040;2023-02-18T04:29:22;101584.81;;;10.26;99.53
14089;BME280;7120;52.890;6.040;2023-02-18T04:31:48;101583.47;;;10.24;99.75
14089;BME280;7120;52.890;6.040;2023-02-18T04:34:13;101581.84;;;10.07;100.00
14089;BME280;7120;52.890;6.040;2023-02-18T04:36:38;101588.63;;;10.25;100.00
14089;BME280;7120;52.890;6.040;2023-02-18T04:39:04;101584.56;;;10.12;100.00
14089;BME280;7120;52.890;6.040;2023-02-18T04:41:29;101579.03;;;10.28;100.00
14089;BME280;7120;52.890;6.040;2023-02-18T04:43:55;101565.97;;;10.14;100.00
14089;BME280;7120;52.890;6.040;2023-02-18T04:46:20;101556.94;;;10.19;100.00
14089;BME280;7120;52.890;6.040;2023-02-18T04:48:46;101546.81;;;10.25;100.00
14089;BME280;7120;52.890;6.040;2023-02-18T04:51:11;101545.75;;;10.15;100.00
14089;BME280;7120;52.890;6.040;2023-02-18T04:53:37;101553.69;;;10.12;100.00
14089;BME280;7120;52.890;6.040;2023-02-18T04:56:02;101543.06;;;10.00;100.00
14089;BME280;7120;52.890;6.040;2023-02-18T04:58:28;101545.72;;;10.21;100.00
14089;BME280;7120;52.890;6.040;2023-02-18T05:00:58;101537.50;;;10.21;100.00
14089;BME280;7120;52.890;6.040;2023-02-18T05:03:23;101533.22;;;10.09;100.00
14089;BME280;7120;52.890;6.040;2023-02-18T05:05:48;101511.84;;;10.16;100.00
14089;BME280;7120;52.890;6.040;2023-02-18T05:08:14;101525.53;;;10.11;100.00
14089;BME280;7120;52.890;6.040;2023-02-18T05:10:40;101529.84;;;10.28;100.00
14089;BME280;7120;52.890;6.040;2023-02-18T05:13:06;101502.09;;;10.00;100.00
14089;BME280;7120;52.890;6.040;2023-02-18T05:15:31;101527.41;;;10.26;100.00
14089;BME280;7120;52.890;6.040;2023-02-18T05:17:56;101509.88;;;10.32;100.00
14089;BME280;7120;52.890;6.040;2023-02-18T05:20:22;101510.97;;;10.31;100.00
14089;BME280;7120;52.890;6.040;2023-02-18T05:22:47;101506.22;;;10.42;100.00
14089;BME280;7120;52.890;6.040;2023-02-18T05:25:12;101497.91;;;10.23;100.00
14089;BME280;7120;52.890;6.040;2023-02-18T05:27:38;101501.94;;;10.31;100.00
14089;BME280;7120;52.890;6.040;2023-02-18T05:30:04;101494.38;;;10.12;100.00
14089;BME280;7120;52.890;6.040;2023-02-18T05:32:30;101490.22;;;10.20;100.00
14089;BME280;7120;52.890;6.040;2023-02-18T05:34:55;101486.69;;;10.19;100.00
14089;BME280;7120;52.890;6.040;2023-02-18T05:37:20;101484.22;;;10.23;100.00
14089;BME280;7120;52.890;6.040;2023-02-18T05:39:46;101469.28;;;10.05;100.00
14089;BME280;7120;52.890;6.040;2023-02-18T05:42:11;101477.97;;;10.12;100.00
14089;BME280;7120;52.890;6.040;2023-02-18T05:44:37;101470.88;;;10.11;100.00
14089;BME280;7120;52.890;6.040;2023-02-18T05:47:07;101470.28;;;10.19;100.00
14089;BME280;7120;52.890;6.040;2023-02-18T05:49:33;101473.38;;;10.08;100.00
14089;BME280;7120;52.890;6.040;2023-02-18T05:51:59;101474.50;;;10.02;100.00
14089;BME280;7120;52.890;6.040;2023-02-18T05:54:25;101480.47;;;10.09;100.00
14089;BME280;7120;52.890;6.040;2023-02-18T05:56:52;101454.81;;;10.00;100.00
14089;BME280;7120;52.890;6.040;2023-02-18T05:59:18;101427.25;;;10.01;100.00
14089;BME280;7120;52.890;6.040;2023-02-18T06:01:43;101433.81;;;9.95;100.00
14089;BME280;7120;52.890;6.040;2023-02-18T06:04:09;101433.75;;;10.05;100.00
14089;BME280;7120;52.890;6.040;2023-02-18T06:06:35;101417.38;;;10.00;100.00
14089;BME280;7120;52.890;6.040;2023-02-18T06:09:00;101428.00;;;10.07;100.00
14089;BME280;7120;52.890;6.040;2023-02-18T06:11:26;101424.13;;;10.13;100.00
14089;BME280;7120;52.890;6.040;2023-02-18T06:13:51;101414.50;;;10.26;100.00
14089;BME280;7120;52.890;6.040;2023-02-18T06:16:17;101414.63;;;10.05;100.00
14089;BME280;7120;52.890;6.040;2023-02-18T06:18:42;101419.25;;;10.10;100.00
14089;BME280;7120;52.890;6.040;2023-02-18T06:21:07;101418.78;;;9.98;100.00
14089;BME280;7120;52.890;6.040;2023-02-18T06:23:33;101430.47;;;10.08;100.00
14089;BME280;7120;52.890;6.040;2023-02-18T06:25:58;101421.97;;;10.10;100.00
14089;BME280;7120;52.890;6.040;2023-02-18T06:28:24;101440.22;;;10.14;100.00
14089;BME280;7120;52.890;6.040;2023-02-18T06:30:49;101426.13;;;10.02;100.00
14089;BME280;7120;52.890;6.040;2023-02-18T06:33:15;101434.22;;;10.17;100.00
14089;BME280;7120;52.890;6.040;2023-02-18T06:35:41;101421.59;;;10.22;100.00
14089;BME280;7120;52.890;6.040;2023-02-18T06:38:06;101425.72;;;10.24;100.00
14089;BME280;7120;52.890;6.040;2023-02-18T06:40:32;101414.22;;;10.27;100.00
14089;BME280;7120;52.890;6.040;2023-02-18T06:42:57;101401.66;;;10.21;100.00
14089;BME280;7120;52.890;6.040;2023-02-18T06:45:22;101404.00;;;10.38;100.00
14089;BME280;7120;52.890;6.040;2023-02-18T06:47:48;101394.84;;;10.24;100.00
14089;BME280;7120;52.890;6.040;2023-02-18T06:50:14;101404.97;;;10.23;100.00
14089;BME280;7120;52.890;6.040;2023-02-18T06:52:39;101406.25;;;10.31;100.00
14089;BME280;7120;52.890;6.040;2023-02-18T06:55:06;101420.63;;;10.47;100.00
14089;BME280;7120;52.890;6.040;2023-02-18T06:57:32;101399.09;;;10.35;100.00
14089;BME280;7120;52.890;6.040;2023-02-18T06:59:57;101398.00;;;10.36;100.00
14089;BME280;7120;52.890;6.040;2023-02-18T07:02:22;101402.09;;;10.38;100.00
14089;BME280;7120;52.890;6.040;2023-02-18T07:04:48;101392.34;;;10.27;100.00
14089;BME280;7120;52.890;6.040;2023-02-18T07:07:13;101402.66;;;10.35;100.00
14089;BME280;7120;52.890;6.040;2023-02-18T07:09:38;101413.06;;;10.33;100.00
14089;BME280;7120;52.890;6.040;2023-02-18T07:12:04;101404.16;;;10.23;100.00
14089;BME280;7120;52.890;6.040;2023-02-18T07:14:29;101401.09;;;10.29;100.00
14089;BME280;7120;52.890;6.040;2023-02-18T07:16:55;101396.34;;;10.40;100.00
14089;BME280;7120;52.890;6.040;2023-02-18T07:19:20;101388.97;;;10.35;100.00
14089;BME280;7120;52.890;6.040;2023-02-18T07:21:45;101395.53;;;10.39;100.00
14089;BME280;7120;52.890;6.040;2023-02-18T07:24:11;101389.47;;;10.42;100.00
14089;BME280;7120;52.890;6.040;2023-02-18T07:26:36;101384.31;;;10.36;100.00
14089;BME280;7120;52.890;6.040;2023-02-18T07:29:02;101393.38;;;10.36;100.00
14089;BME280;7120;52.890;6.040;2023-02-18T07:31:27;101393.16;;;10.28;100.00
14089;BME280;7120;52.890;6.040;2023-02-18T07:33:53;101399.06;;;10.40;100.00
14089;BME280;7120;52.890;6.040;2023-02-18T07:36:18;101394.03;;;10.18;100.00
14089;BME280;7120;52.890;6.040;2023-02-18T07:38:43;101387.34;;;10.34;100.00
14089;BME280;7120;52.890;6.040;2023-02-18T07:41:20;101392.94;;;10.24;100.00
14089;BME280;7120;52.890;6.040;2023-02-18T07:43:46;101398.28;;;10.34;100.00
14089;BME280;7120;52.890;6.040;2023-02-18T07:46:12;101407.69;;;10.23;100.00
14089;BME280;7120;52.890;6.040;2023-02-18T07:48:37;101389.28;;;10.34;100.00
14089;BME280;7120;52.890;6.040;2023-02-18T07:51:07;101378.81;;;10.41;100.00
14089;BME280;7120;52.890;6.040;2023-02-18T07:53:34;101399.03;;;10.45;100.00
14089;BME280;7120;52.890;6.040;2023-02-18T07:56:00;101387.81;;;10.47;100.00
14089;BME280;7120;52.890;6.040;2023-02-18T07:58:27;101390.91;;;10.35;100.00
14089;BME280;7120;52.890;6.040;2023-02-18T08:00:53;101387.56;;;10.43;100.00
14089;BME280;7120;52.890;6.040;2023-02-18T08:03:21;101381.38;;;10.61;100.00
14089;BME280;7120;52.890;6.040;2023-02-18T08:05:48;101398.94;;;10.55;99.36
14089;BME280;7120;52.890;6.040;2023-02-18T08:08:16;101389.91;;;10.55;100.00
14089;BME280;7120;52.890;6.040;2023-02-18T08:10:45;101392.94;;;10.53;100.00
14089;BME280;7120;52.890;6.040;2023-02-18T08:13:11;101387.81;;;10.47;100.00
14089;BME280;7120;52.890;6.040;2023-02-18T08:15:37;101385.41;;;10.40;100.00
14089;BME280;7120;52.890;6.040;2023-02-18T08:18:04;101380.69;;;10.45;100.00
14089;BME280;7120;52.890;6.040;2023-02-18T08:20:29;101388.94;;;10.40;100.00
14089;BME280;7120;52.890;6.040;2023-02-18T08:22:55;101386.03;;;10.32;100.00
14089;BME280;7120;52.890;6.040;2023-02-18T08:25:20;101395.66;;;10.19;100.00
14089;BME280;7120;52.890;6.040;2023-02-18T08:27:46;101391.53;;;10.27;100.00
14089;BME280;7120;52.890;6.040;2023-02-18T08:30:11;101393.44;;;10.26;100.00
14089;BME280;7120;52.890;6.040;2023-02-18T08:32:37;101417.22;;;10.26;100.00
14089;BME280;7120;52.890;6.040;2023-02-18T08:35:03;101400.81;;;10.31;100.00
14089;BME280;7120;52.890;6.040;2023-02-18T08:37:29;101398.38;;;10.19;100.00
14089;BME280;7120;52.890;6.040;2023-02-18T08:39:54;101400.00;;;10.25;100.00
14089;BME280;7120;52.890;6.040;2023-02-18T08:42:20;101400.31;;;10.24;100.00
14089;BME280;7120;52.890;6.040;2023-02-18T08:44:45;101419.34;;;10.34;100.00
14089;BME280;7120;52.890;6.040;2023-02-18T08:47:10;101410.72;;;10.16;100.00
14089;BME280;7120;52.890;6.040;2023-02-18T08:49:36;101409.94;;;10.11;100.00
14089;BME280;7120;52.890;6.040;2023-02-18T08:52:03;101405.31;;;10.06;100.00
14089;BME280;7120;52.890;6.040;2023-02-18T08:54:29;101405.75;;;9.84;100.00
14089;BME280;7120;52.890;6.040;2023-02-18T08:56:55;101410.03;;;10.01;100.00
14089;BME280;7120;52.890;6.040;2023-02-18T08:59:22;101415.75;;;9.99;100.00
14089;BME280;7120;52.890;6.040;2023-02-18T09:01:48;101375.97;;;9.88;100.00
14089;BME280;7120;52.890;6.040;2023-02-18T09:04:13;101407.66;;;9.84;100.00
14089;BME280;7120;52.890;6.040;2023-02-18T09:06:39;101397.56;;;9.84;100.00
14089;BME280;7120;52.890;6.040;2023-02-18T09:09:04;101408.44;;;9.95;100.00
14089;BME280;7120;52.890;6.040;2023-02-18T09:11:29;101391.28;;;9.84;100.00
14089;BME280;7120;52.890;6.040;2023-02-18T09:13:55;101410.06;;;9.90;100.00
14089;BME280;7120;52.890;6.040;2023-02-18T09:16:20;101415.53;;;9.90;100.00
14089;BME280;7120;52.890;6.040;2023-02-18T09:18:47;101418.47;;;9.99;100.00
14089;BME280;7120;52.890;6.040;2023-02-18T09:21:14;101411.97;;;9.95;100.00
14089;BME280;7120;52.890;6.040;2023-02-18T09:23:40;101398.34;;;9.90;100.00
14089;BME280;7120;52.890;6.040;2023-02-18T09:26:09;101425.25;;;10.07;100.00
14089;BME280;7120;52.890;6.040;2023-02-18T09:28:36;101434.31;;;10.02;100.00
14089;BME280;7120;52.890;6.040;2023-02-18T09:31:12;101426.16;;;9.97;100.00
14089;BME280;7120;52.890;6.040;2023-02-18T09:33:40;101421.19;;;10.04;100.00
14089;BME280;7120;52.890;6.040;2023-02-18T09:36:06;101419.34;;;9.95;100.00
14089;BME280;7120;52.890;6.040;2023-02-18T09:38:32;101425.88;;;9.94;100.00
14089;BME280;7120;52.890;6.040;2023-02-18T09:40:59;101414.63;;;10.05;100.00
14089;BME280;7120;52.890;6.040;2023-02-18T09:45:54;101410.88;;;9.96;99.81
14089;BME280;7120;52.890;6.040;2023-02-18T09:48:26;101434.22;;;10.23;98.96
14089;BME280;7120;52.890;6.040;2023-02-18T09:50:52;101424.00;;;10.33;97.83
14089;BME280;7120;52.890;6.040;2023-02-18T09:53:20;101416.53;;;10.44;96.27
14089;BME280;7120;52.890;6.040;2023-02-18T09:55:47;101417.69;;;10.67;95.24
14089;BME280;7120;52.890;6.040;2023-02-18T09:58:18;101433.19;;;10.77;94.16
14089;BME280;7120;52.890;6.040;2023-02-18T10:00:48;101426.59;;;10.78;92.92
14089;BME280;7120;52.890;6.040;2023-02-18T10:03:20;101403.34;;;11.04;93.79
14089;BME280;7120;52.890;6.040;2023-02-18T10:08:44;101431.75;;;11.32;91.04
14089;BME280;7120;52.890;6.040;2023-02-18T10:11:12;101421.31;;;11.34;89.39
14089;BME280;7120;52.890;6.040;2023-02-18T10:13:41;101436.31;;;11.42;89.03
14089;BME280;7120;52.890;6.040;2023-02-18T10:16:09;101437.41;;;12.02;88.74
14089;BME280;7120;52.890;6.040;2023-02-18T10:18:41;101416.91;;;12.00;86.15
14089;BME280;7120;52.890;6.040;2023-02-18T10:21:19;101422.06;;;11.82;87.04
14089;BME280;7120;52.890;6.040;2023-02-18T10:24:06;101420.78;;;11.56;86.55
14089;BME280;7120;52.890;6.040;2023-02-18T10:26:34;101430.13;;;11.31;88.73
14089;BME280;7120;52.890;6.040;2023-02-18T10:29:01;101420.69;;;11.42;88.27
14089;BME280;7120;52.890;6.040;2023-02-18T10:31:35;101425.81;;;11.49;88.10
14089;BME280;7120;52.890;6.040;2023-02-18T10:34:13;101430.84;;;11.42;87.21
14089;BME280;7120;52.890;6.040;2023-02-18T10:45:13;101426.69;;;12.06;85.49
14089;BME280;7120;52.890;6.040;2023-02-18T10:52:58;101437.38;;;12.86;81.80
14089;BME280;7120;52.890;6.040;2023-02-18T10:55:43;101448.69;;;12.52;81.58
14089;BME280;7120;52.890;6.040;2023-02-18T10:58:30;101450.53;;;12.57;82.79
14089;BME280;7120;52.890;6.040;2023-02-18T11:01:03;101442.66;;;12.18;83.63
14089;BME280;7120;52.890;6.040;2023-02-18T11:06:31;101448.75;;;12.15;83.72
14089;BME280;7120;52.890;6.040;2023-02-18T11:08:59;101453.94;;;12.16;84.75
14089;BME280;7120;52.890;6.040;2023-02-18T11:11:33;101460.59;;;12.10;85.64
14089;BME280;7120;52.890;6.040;2023-02-18T11:14:02;101465.50;;;11.94;86.24
14089;BME280;7120;52.890;6.040;2023-02-18T11:16:40;101472.53;;;12.00;85.97
14089;BME280;7120;52.890;6.040;2023-02-18T11:19:36;101464.31;;;11.76;86.46
14089;BME280;7120;52.890;6.040;2023-02-18T11:22:31;101470.84;;;11.86;86.95
14089;BME280;7120;52.890;6.040;2023-02-18T11:25:03;101465.34;;;11.86;85.81
14089;BME280;7120;52.890;6.040;2023-02-18T11:27:43;101471.66;;;11.86;86.17
14089;BME280;7120;52.890;6.040;2023-02-18T11:30:22;101455.84;;;11.97;85.29
14089;BME280;7120;52.890;6.040;2023-02-18T11:32:50;101470.63;;;12.20;84.82
14089;BME280;7120;52.890;6.040;2023-02-18T11:35:19;101471.25;;;12.30;84.05
14089;BME280;7120;52.890;6.040;2023-02-18T11:37:46;101475.50;;;12.23;85.20
14089;BME280;7120;52.890;6.040;2023-02-18T11:40:21;101484.16;;;12.49;84.12
14089;BME280;7120;52.890;6.040;2023-02-18T11:42:48;101475.53;;;12.55;84.35
14089;BME280;7120;52.890;6.040;2023-02-18T11:45:30;101490.75;;;12.80;83.10
14089;BME280;7120;52.890;6.040;2023-02-18T11:48:07;101473.00;;;12.91;83.36
14089;BME280;7120;52.890;6.040;2023-02-18T11:50:33;101477.75;;;12.86;81.91
14089;BME280;7120;52.890;6.040;2023-02-18T11:52:59;101478.28;;;13.02;81.45
14089;BME280;7120;52.890;6.040;2023-02-18T11:55:28;101490.66;;;13.32;80.29
14089;BME280;7120;52.890;6.040;2023-02-18T11:57:59;101480.75;;;13.17;80.57
14089;BME280;7120;52.890;6.040;2023-02-18T12:00:38;101481.34;;;13.00;80.80
14089;BME280;7120;52.890;6.040;2023-02-18T12:03:27;101480.22;;;13.01;81.77
14089;BME280;7120;52.890;6.040;2023-02-18T12:05:57;101482.84;;;12.92;81.04
14089;BME280;7120;52.890;6.040;2023-02-18T12:08:27;101495.25;;;12.90;80.57
14089;BME280;7120;52.890;6.040;2023-02-18T12:11:22;101485.41;;;13.03;81.34
14089;BME280;7120;52.890;6.040;2023-02-18T12:13:53;101491.03;;;13.11;80.43
14089;BME280;7120;52.890;6.040;2023-02-18T12:19:02;101482.97;;;13.15;80.72
14089;BME280;7120;52.890;6.040;2023-02-18T12:32:27;101491.59;;;12.95;80.05
14089;BME280;7120;52.890;6.040;2023-02-18T12:58:04;101522.59;;;13.28;79.46
14089;BME280;7120;52.890;6.040;2023-02-18T13:05:50;101527.25;;;13.13;80.02
14089;BME280;7120;52.890;6.040;2023-02-18T13:13:33;101533.03;;;13.12;79.50
14089;BME280;7120;52.890;6.040;2023-02-18T13:16:12;101538.63;;;13.07;80.38
14089;BME280;7120;52.890;6.040;2023-02-18T13:18:42;101541.34;;;12.74;81.36
14089;BME280;7120;52.890;6.040;2023-02-18T13:21:12;101556.19;;;12.73;81.32
14089;BME280;7120;52.890;6.040;2023-02-18T13:26:16;101542.28;;;12.70;81.64
14089;BME280;7120;52.890;6.040;2023-02-18T13:28:48;101543.66;;;12.67;81.86
14089;BME280;7120;52.890;6.040;2023-02-18T13:31:38;101543.78;;;12.43;82.60
14089;BME280;7120;52.890;6.040;2023-02-18T13:34:11;101541.47;;;12.31;82.06
14089;BME280;7120;52.890;6.040;2023-02-18T13:36:50;101544.66;;;12.20;82.69
14089;BME280;7120;52.890;6.040;2023-02-18T13:39:20;101540.19;;;12.24;82.63
14089;BME280;7120;52.890;6.040;2023-02-18T13:41:48;101541.25;;;12.28;83.19
14089;BME280;7120;52.890;6.040;2023-02-18T13:46:52;101536.50;;;12.33;83.77
14089;BME280;7120;52.890;6.040;2023-02-18T13:49:22;101531.59;;;12.12;82.94
14089;BME280;7120;52.890;6.040;2023-02-18T13:51:50;101535.34;;;11.97;83.60
14089;BME280;7120;52.890;6.040;2023-02-18T13:54:29;101540.06;;;12.15;84.00
14089;BME280;7120;52.890;6.040;2023-02-18T13:57:04;101539.59;;;12.08;83.34
14089;BME280;7120;52.890;6.040;2023-02-18T13:59:43;101544.47;;;12.11;83.98
14089;BME280;7120;52.890;6.040;2023-02-18T14:07:36;101544.00;;;12.28;83.37
14089;BME280;7120;52.890;6.040;2023-02-18T14:12:42;101544.06;;;12.23;83.76
14089;BME280;7120;52.890;6.040;2023-02-18T14:17:43;101553.09;;;12.23;82.66
14089;BME280;7120;52.890;6.040;2023-02-18T14:22:48;101554.44;;;12.07;83.41
14089;BME280;7120;52.890;6.040;2023-02-18T14:25:34;101559.59;;;12.08;84.24
14089;BME280;7120;52.890;6.040;2023-02-18T14:28:03;101567.13;;;12.22;83.74
14089;BME280;7120;52.890;6.040;2023-02-18T14:30:41;101560.41;;;12.09;83.83
14089;BME280;7120;52.890;6.040;2023-02-18T14:33:13;101574.63;;;11.92;83.28
14089;BME280;7120;52.890;6.040;2023-02-18T14:35:49;101570.78;;;12.12;82.95
14089;BME280;7120;52.890;6.040;2023-02-18T14:38:28;101573.50;;;11.93;84.27
14089;BME280;7120;52.890;6.040;2023-02-18T14:44:31;101569.53;;;12.04;82.86
14089;BME280;7120;52.890;6.040;2023-02-18T14:49:57;101559.38;;;11.57;84.68
14089;BME280;7120;52.890;6.040;2023-02-18T14:52:35;101582.25;;;11.71;83.91
14089;BME280;7120;52.890;6.040;2023-02-18T14:55:04;101586.25;;;11.84;84.89
14089;BME280;7120;52.890;6.040;2023-02-18T14:57:40;101583.34;;;11.70;84.42
14089;BME280;7120;52.890;6.040;2023-02-18T15:00:23;101589.91;;;11.69;83.42
14089;BME280;7120;52.890;6.040;2023-02-18T15:02:51;101590.84;;;11.60;84.47
14089;BME280;7120;52.890;6.040;2023-02-18T15:05:26;101588.16;;;11.54;84.24
14089;BME280;7120;52.890;6.040;2023-02-18T15:08:14;101584.78;;;11.39;84.40
14089;BME280;7120;52.890;6.040;2023-02-18T15:13:22;101594.78;;;11.48;84.52
14089;BME280;7120;52.890;6.040;2023-02-18T15:15:54;101599.28;;;11.39;84.52